createdAt,value
2022-12-08T00:01:15.322Z,9.90
2022-12-08T00:03:42.588Z,22.50
2022-12-08T00:06:56.082Z,21.50
2022-12-08T00:12:14.632Z,24.30
2022-12-08T00:14:46.932Z,17.70
2022-12-08T00:17:16.025Z,10.50
2022-12-08T00:19:43.415Z,21.90
2022-12-08T00:22:11.700Z,21.80
2022-12-08T00:24:39.754Z,24.30
2022-12-08T00:27:08.533Z,29.30
2022-12-08T00:29:35.262Z,30.70
2022-12-08T00:32:02.088Z,29.30
2022-12-08T00:34:30.285Z,31.30
2022-12-08T00:36:57.043Z,30.00
2022-12-08T00:39:24.122Z,31.10
2022-12-08T00:42:09.360Z,33.10
2022-12-08T00:44:36.070Z,30.10
2022-12-08T00:47:03.289Z,33.80
2022-12-08T00:49:29.935Z,33.50
2022-12-08T00:51:56.662Z,19.40
2022-12-08T00:54:23.882Z,17.60
2022-12-08T00:56:51.345Z,18.80
2022-12-08T00:59:18.489Z,15.80
2022-12-08T01:01:45.586Z,28.80
2022-12-08T01:04:15.493Z,58.70
2022-12-08T01:06:43.228Z,46.80
2022-12-08T01:09:12.119Z,62.80
2022-12-08T01:11:38.966Z,59.40
2022-12-08T01:14:05.748Z,65.20
2022-12-08T01:16:35.652Z,45.30
2022-12-08T01:19:03.330Z,39.30
2022-12-08T01:21:30.105Z,26.90
2022-12-08T01:23:59.599Z,36.20
2022-12-08T01:26:26.885Z,52.00
2022-12-08T01:28:53.922Z,50.00
2022-12-08T01:31:22.218Z,42.60
2022-12-08T01:33:49.826Z,50.20
2022-12-08T01:36:23.761Z,32.80
2022-12-08T01:38:51.549Z,14.80
2022-12-08T01:41:21.624Z,16.20
2022-12-08T01:44:08.117Z,12.70
2022-12-08T01:46:37.668Z,52.80
2022-12-08T01:49:25.597Z,37.50
2022-12-08T01:52:02.298Z,43.50
2022-12-08T01:54:33.606Z,36.60
2022-12-08T01:57:09.467Z,34.50
2022-12-08T01:59:41.425Z,34.70
2022-12-08T02:02:10.195Z,24.00
2022-12-08T02:04:37.378Z,27.70
2022-12-08T02:07:08.101Z,31.70
2022-12-08T02:09:37.045Z,32.00
2022-12-08T02:12:03.890Z,27.50
2022-12-08T02:14:30.996Z,32.50
2022-12-08T02:17:20.871Z,31.70
2022-12-08T02:20:04.300Z,20.80
2022-12-08T02:22:50.300Z,14.30
2022-12-08T02:25:27.000Z,27.00
2022-12-08T02:28:27.655Z,21.90
2022-12-08T02:31:11.611Z,8.80
2022-12-08T02:33:44.658Z,6.70
2022-12-08T02:36:26.314Z,32.50
2022-12-08T02:39:00.281Z,35.50
2022-12-08T02:41:47.730Z,26.70
2022-12-08T02:44:27.560Z,34.60
2022-12-08T02:47:00.105Z,29.50
2022-12-08T02:52:11.028Z,28.30
2022-12-08T02:54:50.282Z,31.00
2022-12-08T02:57:58.780Z,33.70
2022-12-08T03:00:28.849Z,41.00
2022-12-08T03:03:14.047Z,38.60
2022-12-08T03:05:59.133Z,37.20
2022-12-08T03:08:48.790Z,31.70
2022-12-08T03:11:30.011Z,15.50
2022-12-08T03:14:00.708Z,15.70
2022-12-08T03:16:29.570Z,17.60
2022-12-08T03:19:05.013Z,34.60
2022-12-08T03:21:34.175Z,35.30
2022-12-08T03:24:05.291Z,34.90
2022-12-08T03:26:51.228Z,31.70
2022-12-08T03:29:18.474Z,32.30
2022-12-08T03:31:52.318Z,25.10
2022-12-08T03:34:21.276Z,11.10
2022-12-08T03:36:48.001Z,32.90
2022-12-08T03:39:14.715Z,30.80
2022-12-08T03:41:41.609Z,29.60
2022-12-08T03:44:08.261Z,33.00
2022-12-08T03:46:34.925Z,32.90
2022-12-08T03:49:01.821Z,14.50
2022-12-08T03:51:28.709Z,27.30
2022-12-08T03:53:55.566Z,27.10
2022-12-08T03:56:27.995Z,21.40
2022-12-08T03:58:55.079Z,27.20
2022-12-08T04:01:22.203Z,14.30
2022-12-08T04:03:49.687Z,16.90
2022-12-08T04:06:17.675Z,12.60
2022-12-08T04:08:44.483Z,27.10
2022-12-08T04:11:11.700Z,19.50
2022-12-08T04:13:40.763Z,25.60
2022-12-08T04:16:08.509Z,21.70
2022-12-08T04:18:35.603Z,8.90
2022-12-08T04:21:02.378Z,25.80
2022-12-08T04:23:29.206Z,25.40
2022-12-08T04:25:55.895Z,34.90
2022-12-08T04:28:22.668Z,27.10
2022-12-08T04:30:50.199Z,21.70
2022-12-08T04:33:17.054Z,29.10
2022-12-08T04:35:43.768Z,16.80
2022-12-08T04:38:10.686Z,36.20
2022-12-08T04:40:38.373Z,17.90
2022-12-08T04:43:05.779Z,33.30
2022-12-08T04:45:33.064Z,28.90
2022-12-08T04:48:00.366Z,12.30
2022-12-08T04:50:27.545Z,20.30
2022-12-08T04:52:54.259Z,20.90
2022-12-08T04:55:21.085Z,9.30
2022-12-08T04:57:47.864Z,23.90
2022-12-08T05:00:15.046Z,12.90
2022-12-08T05:02:41.765Z,15.10
2022-12-08T05:05:09.056Z,25.70
2022-12-08T05:07:35.965Z,11.30
2022-12-08T05:10:03.371Z,11.10
2022-12-08T05:12:30.299Z,12.60
2022-12-08T05:14:57.003Z,25.20
2022-12-08T05:17:23.726Z,21.00
2022-12-08T05:19:50.447Z,10.70
2022-12-08T05:22:17.048Z,8.90
2022-12-08T05:24:47.453Z,31.90
2022-12-08T05:27:14.966Z,27.70
2022-12-08T05:29:41.823Z,30.00
2022-12-08T05:32:08.485Z,22.00
2022-12-08T05:34:35.207Z,11.00
2022-12-08T05:37:01.962Z,31.60
2022-12-08T05:39:28.593Z,44.60
2022-12-08T05:41:55.261Z,34.10
2022-12-08T05:44:22.043Z,55.10
2022-12-08T05:46:48.698Z,46.30
2022-12-08T05:49:15.335Z,48.30
2022-12-08T05:51:42.087Z,32.40
2022-12-08T05:54:09.019Z,37.00
2022-12-08T05:56:35.692Z,34.50
2022-12-08T05:59:06.225Z,48.70
2022-12-08T06:01:33.090Z,28.50
2022-12-08T06:04:01.742Z,20.50
2022-12-08T06:06:29.459Z,12.40
2022-12-08T06:08:56.086Z,10.60
2022-12-08T06:11:30.730Z,13.40
2022-12-08T06:13:57.856Z,11.90
2022-12-08T06:16:26.557Z,13.80
2022-12-08T06:18:53.634Z,31.70
2022-12-08T06:21:20.999Z,29.30
2022-12-08T06:23:54.358Z,32.40
2022-12-08T06:26:21.669Z,24.40
2022-12-08T06:28:49.376Z,17.80
2022-12-08T06:31:22.344Z,19.90
2022-12-08T06:33:49.943Z,21.40
2022-12-08T06:36:18.867Z,36.00
2022-12-08T06:38:45.783Z,32.60
2022-12-08T06:41:13.153Z,33.50
2022-12-08T06:43:41.117Z,43.80
2022-12-08T06:46:10.847Z,20.20
2022-12-08T06:48:37.900Z,18.60
2022-12-08T06:51:08.889Z,10.70
2022-12-08T06:53:36.075Z,21.10
2022-12-08T06:56:03.534Z,25.20
2022-12-08T06:58:30.249Z,17.80
2022-12-08T07:00:57.060Z,48.10
2022-12-08T07:03:23.965Z,53.60
2022-12-08T07:06:01.816Z,55.50
2022-12-08T07:08:30.632Z,43.50
2022-12-08T07:10:57.440Z,45.80
2022-12-08T07:13:24.307Z,53.10
2022-12-08T07:15:51.350Z,45.00
2022-12-08T07:18:18.156Z,48.80
2022-12-08T07:20:44.984Z,40.00
2022-12-08T07:23:11.652Z,40.50
2022-12-08T07:25:38.279Z,51.90
2022-12-08T07:28:09.917Z,43.10
2022-12-08T07:30:37.259Z,38.10
2022-12-08T07:33:07.843Z,38.40
2022-12-08T07:35:35.399Z,37.90
2022-12-08T07:38:02.328Z,35.60
2022-12-08T07:40:29.144Z,37.60
2022-12-08T07:42:55.805Z,41.30
2022-12-08T07:45:26.903Z,34.10
2022-12-08T07:47:56.668Z,37.40
2022-12-08T07:50:23.452Z,18.90
2022-12-08T07:52:50.194Z,15.90
2022-12-08T07:55:16.972Z,19.30
2022-12-08T07:57:43.645Z,30.90
2022-12-08T08:00:11.081Z,13.90
2022-12-08T08:02:41.662Z,39.60
2022-12-08T08:05:08.972Z,30.70
2022-12-08T08:07:36.623Z,24.10
2022-12-08T08:10:04.257Z,17.80
2022-12-08T08:12:32.528Z,33.90
2022-12-08T08:15:00.767Z,7.70
2022-12-08T08:17:28.888Z,28.80
2022-12-08T08:19:56.076Z,32.60
2022-12-08T08:22:24.460Z,14.90
2022-12-08T08:24:51.286Z,13.40
2022-12-08T08:27:18.152Z,7.30
2022-12-08T08:29:44.800Z,28.40
2022-12-08T08:32:11.675Z,26.90
2022-12-08T08:34:38.519Z,25.60
2022-12-08T08:37:05.872Z,28.20
2022-12-08T08:39:32.738Z,22.10
2022-12-08T08:41:59.634Z,10.90
2022-12-08T08:44:26.266Z,26.20
2022-12-08T08:46:53.147Z,8.70
2022-12-08T08:49:20.042Z,29.10
2022-12-08T08:51:46.871Z,16.90
2022-12-08T08:54:13.733Z,26.20
2022-12-08T08:56:40.497Z,30.00
2022-12-08T08:59:07.492Z,26.30
2022-12-08T09:01:34.349Z,30.40
2022-12-08T09:04:01.347Z,13.50
2022-12-08T09:06:28.340Z,34.80
2022-12-08T09:08:55.259Z,19.20
2022-12-08T09:11:22.814Z,22.20
2022-12-08T09:13:50.745Z,24.50
2022-12-08T09:16:18.439Z,34.20
2022-12-08T09:18:45.726Z,32.30
2022-12-08T09:21:19.549Z,26.50
2022-12-08T09:23:46.157Z,26.10
2022-12-08T09:26:14.807Z,25.50
2022-12-08T09:28:45.829Z,23.10
2022-12-08T09:31:14.016Z,17.90
2022-12-08T09:33:41.441Z,19.80
2022-12-08T09:36:09.029Z,10.30
2022-12-08T09:38:36.741Z,8.30
2022-12-08T09:41:13.614Z,13.30
2022-12-08T09:44:03.572Z,11.00
2022-12-08T09:46:32.969Z,21.40
2022-12-08T09:49:01.718Z,19.50
2022-12-08T09:51:36.499Z,18.50
2022-12-08T09:54:12.017Z,21.80
2022-12-08T09:56:39.351Z,17.00
2022-12-08T09:59:30.417Z,18.80
2022-12-08T10:01:57.214Z,14.50
2022-12-08T10:04:34.036Z,17.60
2022-12-08T10:07:23.691Z,19.50
2022-12-08T10:10:19.168Z,21.40
2022-12-08T10:13:23.439Z,21.40
2022-12-08T10:15:57.509Z,11.80
2022-12-08T10:18:30.728Z,23.40
2022-12-08T10:21:11.122Z,17.50
2022-12-08T10:23:41.120Z,16.50
2022-12-08T10:26:19.270Z,10.40
2022-12-08T10:28:45.989Z,20.80
2022-12-08T10:31:17.124Z,19.50
2022-12-08T10:33:45.182Z,20.70
2022-12-08T10:36:11.917Z,19.70
2022-12-08T10:38:40.170Z,20.70
2022-12-08T10:41:13.550Z,15.70
2022-12-08T10:43:48.643Z,16.20
2022-12-08T10:46:20.359Z,19.20
2022-12-08T10:48:55.893Z,18.10
2022-12-08T10:51:33.761Z,10.80
2022-12-08T10:54:00.872Z,21.40
2022-12-08T10:56:30.182Z,22.30
2022-12-08T10:59:26.453Z,22.60
2022-12-08T11:01:56.524Z,18.50
2022-12-08T11:04:35.907Z,11.10
2022-12-08T11:07:05.655Z,21.20
2022-12-08T11:09:47.654Z,24.00
2022-12-08T11:12:21.952Z,21.10
2022-12-08T11:15:00.737Z,9.80
2022-12-08T11:17:35.060Z,17.00
2022-12-08T11:20:06.034Z,21.60
2022-12-08T11:22:36.583Z,21.70
2022-12-08T11:25:03.443Z,14.90
2022-12-08T11:27:32.746Z,7.40
2022-12-08T11:30:01.347Z,14.80
2022-12-08T11:32:27.932Z,14.80
2022-12-08T11:34:54.452Z,20.90
2022-12-08T11:37:41.388Z,22.30
2022-12-08T11:40:33.649Z,13.60
2022-12-08T11:43:26.670Z,22.90
2022-12-08T11:46:10.792Z,13.40
2022-12-08T11:48:48.613Z,21.20
2022-12-08T11:51:24.011Z,15.70
2022-12-08T11:54:02.560Z,15.50
2022-12-08T11:56:33.501Z,19.70
2022-12-08T11:59:09.254Z,20.90
2022-12-08T12:01:42.216Z,20.40
2022-12-08T12:04:19.861Z,23.20
2022-12-08T12:06:59.176Z,14.40
2022-12-08T12:09:36.004Z,7.80
2022-12-08T12:12:40.065Z,11.70
2022-12-08T12:15:32.359Z,11.90
2022-12-08T12:18:01.397Z,17.00
2022-12-08T12:20:36.706Z,13.60
2022-12-08T12:23:16.002Z,20.10
2022-12-08T12:25:54.376Z,20.50
2022-12-08T12:28:24.703Z,8.40
2022-12-08T12:31:14.611Z,12.30
2022-12-08T12:33:45.298Z,12.40
2022-12-08T12:36:13.767Z,12.20
2022-12-08T12:39:05.654Z,20.10
2022-12-08T12:41:55.509Z,11.30
2022-12-08T12:44:44.876Z,23.30
2022-12-08T12:47:14.233Z,23.60
2022-12-08T12:49:43.125Z,20.80
2022-12-08T12:52:09.654Z,21.80
2022-12-08T12:54:42.338Z,21.90
2022-12-08T12:59:48.980Z,19.60
2022-12-08T13:02:25.992Z,22.20
2022-12-08T13:05:14.206Z,20.80
2022-12-08T13:08:01.347Z,10.00
2022-12-08T13:10:39.755Z,22.50
2022-12-08T13:13:09.040Z,24.40
2022-12-08T13:15:46.385Z,24.70
2022-12-08T13:18:36.012Z,23.70
2022-12-08T13:21:08.870Z,21.40
2022-12-08T13:23:44.609Z,19.20
2022-12-08T13:26:13.317Z,12.10
2022-12-08T13:28:58.581Z,27.40
2022-12-08T13:31:52.414Z,18.60
2022-12-08T13:34:47.174Z,22.00
2022-12-08T13:37:32.665Z,21.40
2022-12-08T13:40:15.917Z,21.10
2022-12-08T13:43:05.298Z,21.20
2022-12-08T13:46:18.227Z,23.40
2022-12-08T13:57:32.921Z,11.70
2022-12-08T14:00:14.009Z,50.30
2022-12-08T14:02:47.386Z,29.50
2022-12-08T14:05:18.586Z,27.30
2022-12-08T14:07:49.048Z,19.10
2022-12-08T14:10:21.301Z,29.50
2022-12-08T14:12:54.958Z,34.60
2022-12-08T14:15:22.574Z,18.40
2022-12-08T14:17:55.164Z,17.60
2022-12-08T14:22:56.902Z,22.30
2022-12-08T14:25:25.984Z,28.40
2022-12-08T14:28:02.124Z,24.70
2022-12-08T14:30:32.221Z,21.20
2022-12-08T14:33:01.523Z,22.30
2022-12-08T14:35:38.807Z,20.50
2022-12-08T14:38:13.506Z,19.40
2022-12-08T14:41:02.432Z,21.10
2022-12-08T14:43:31.272Z,18.80
2022-12-08T14:46:18.518Z,20.20
2022-12-08T14:48:45.983Z,11.00
2022-12-08T14:51:16.160Z,21.60
2022-12-08T14:53:45.809Z,11.40
2022-12-08T14:56:33.987Z,31.50
2022-12-08T14:59:19.471Z,20.20
2022-12-08T15:01:48.181Z,15.10
2022-12-08T15:04:19.487Z,21.60
2022-12-08T15:07:09.276Z,24.50
2022-12-08T15:09:40.334Z,14.00
2022-12-08T15:12:13.171Z,16.10
2022-12-08T15:14:41.463Z,12.70
2022-12-08T15:17:29.642Z,20.00
2022-12-08T15:19:58.168Z,11.40
2022-12-08T15:22:28.591Z,13.10
2022-12-08T15:24:55.930Z,14.50
2022-12-08T15:27:24.594Z,15.80
2022-12-08T15:29:51.277Z,11.20
2022-12-08T15:32:23.242Z,21.50
2022-12-08T15:34:50.164Z,9.80
2022-12-08T15:37:22.282Z,15.50
2022-12-08T15:39:49.586Z,21.70
2022-12-08T15:42:16.336Z,26.00
2022-12-08T15:44:43.514Z,23.90
2022-12-08T15:47:18.753Z,29.70
2022-12-08T15:49:46.948Z,28.40
2022-12-08T15:52:16.157Z,21.10
2022-12-08T15:54:42.942Z,24.20
2022-12-08T16:04:19.898Z,23.60
2022-12-08T16:09:32.837Z,15.70
2022-12-08T16:12:18.560Z,19.00
2022-12-08T16:17:33.654Z,23.90
2022-12-08T16:20:01.086Z,21.10
2022-12-08T16:25:22.108Z,31.30
2022-12-08T16:28:05.334Z,32.10
2022-12-08T16:30:39.566Z,30.00
2022-12-08T16:33:06.469Z,33.20
2022-12-08T16:35:33.251Z,20.60
2022-12-08T16:38:00.178Z,28.30
2022-12-08T16:40:26.876Z,24.80
2022-12-08T16:42:53.451Z,29.10
2022-12-08T16:45:23.348Z,16.90
2022-12-08T16:47:54.063Z,12.20
2022-12-08T16:50:24.931Z,17.80
2022-12-08T16:53:03.967Z,9.30
2022-12-08T16:55:31.793Z,14.50
2022-12-08T16:57:58.881Z,16.70
2022-12-08T17:00:27.940Z,20.70
2022-12-08T17:02:55.226Z,23.80
2022-12-08T17:05:23.927Z,32.10
2022-12-08T17:07:52.107Z,27.80
2022-12-08T17:10:22.556Z,25.20
2022-12-08T17:12:52.939Z,22.00
2022-12-08T17:15:23.756Z,24.40
2022-12-08T17:17:52.009Z,25.30
2022-12-08T17:20:24.106Z,12.60
2022-12-08T17:22:54.830Z,27.50
2022-12-08T17:25:21.595Z,22.10
2022-12-08T17:27:48.353Z,24.70
2022-12-08T17:30:17.085Z,29.10
2022-12-08T17:32:44.290Z,27.10
2022-12-08T17:35:12.721Z,33.30
2022-12-08T17:37:39.897Z,35.20
2022-12-08T17:40:07.365Z,35.80
2022-12-08T17:42:34.453Z,25.70
2022-12-08T17:45:01.156Z,13.10
2022-12-08T17:47:27.981Z,28.00
2022-12-08T17:49:55.379Z,20.30
2022-12-08T17:52:21.953Z,15.80
2022-12-08T17:54:48.743Z,19.50
2022-12-08T17:57:15.427Z,14.10
2022-12-08T17:59:42.158Z,21.10
2022-12-08T18:02:11.172Z,32.70
2022-12-08T18:04:37.979Z,12.90
2022-12-08T18:07:05.276Z,20.10
2022-12-08T18:09:33.056Z,17.70
2022-12-08T18:11:59.923Z,26.60
2022-12-08T18:14:27.256Z,24.10
2022-12-08T18:16:53.988Z,23.20
2022-12-08T18:19:20.771Z,34.90
2022-12-08T18:21:47.510Z,32.50
2022-12-08T18:24:21.557Z,31.70
2022-12-08T18:26:51.337Z,29.90
2022-12-08T18:29:19.035Z,25.10
2022-12-08T18:31:45.832Z,27.40
2022-12-08T18:34:12.674Z,37.60
2022-12-08T18:36:39.459Z,33.80
2022-12-08T18:39:10.821Z,17.00
2022-12-08T18:41:37.847Z,29.40
2022-12-08T18:44:04.510Z,38.40
2022-12-08T18:46:31.362Z,36.80
2022-12-08T18:48:58.892Z,42.30
2022-12-08T18:51:25.742Z,35.20
2022-12-08T18:53:52.718Z,41.00
2022-12-08T18:56:28.498Z,27.80
2022-12-08T18:59:01.496Z,41.70
2022-12-08T19:01:33.412Z,26.30
2022-12-08T19:04:27.502Z,28.30
2022-12-08T19:06:49.785Z,23.80
2022-12-08T19:09:17.009Z,21.20
2022-12-08T19:11:43.854Z,16.40
2022-12-08T19:14:10.937Z,19.20
2022-12-08T19:16:37.915Z,19.70
2022-12-08T19:19:05.175Z,17.50
2022-12-08T19:21:33.247Z,18.90
2022-12-08T19:24:00.972Z,17.40
2022-12-08T19:26:27.921Z,12.70
2022-12-08T19:28:55.528Z,6.10
2022-12-08T19:31:22.318Z,17.70
2022-12-08T19:33:49.250Z,7.30
2022-12-08T19:36:19.188Z,13.10
2022-12-08T19:39:04.884Z,21.30
2022-12-08T19:41:51.132Z,17.60
2022-12-08T19:44:25.877Z,12.30
2022-12-08T19:46:52.692Z,17.90
2022-12-08T19:49:19.551Z,9.10
2022-12-08T19:51:46.246Z,14.20
2022-12-08T19:54:12.868Z,20.30
2022-12-08T19:56:39.629Z,19.70
2022-12-08T19:59:07.183Z,17.20
2022-12-08T20:01:34.073Z,21.70
2022-12-08T20:04:00.973Z,23.70
2022-12-08T20:06:27.730Z,22.20
2022-12-08T20:08:54.586Z,22.90
2022-12-08T20:11:21.465Z,21.90
2022-12-08T20:13:48.192Z,21.50
2022-12-08T20:16:16.243Z,16.40
2022-12-08T20:18:43.636Z,25.00
2022-12-08T20:21:11.533Z,24.20
2022-12-08T20:23:38.216Z,27.20
2022-12-08T20:26:07.516Z,23.70
2022-12-08T20:28:35.236Z,19.60
2022-12-08T20:31:02.830Z,25.90
2022-12-08T20:33:30.204Z,19.70
2022-12-08T20:35:59.761Z,25.10
2022-12-08T20:38:27.784Z,14.80
2022-12-08T20:40:55.520Z,24.60
2022-12-08T20:43:22.295Z,14.00
2022-12-08T20:45:49.189Z,25.30
2022-12-08T20:48:15.997Z,27.80
2022-12-08T20:50:43.478Z,25.00
2022-12-08T20:53:10.455Z,13.70
2022-12-08T20:55:41.031Z,15.10
2022-12-08T20:58:08.020Z,10.30
2022-12-08T21:00:34.702Z,11.90
2022-12-08T21:03:01.599Z,26.00
2022-12-08T21:05:28.600Z,25.10
2022-12-08T21:07:55.435Z,30.70
2022-12-08T21:10:22.256Z,23.00
2022-12-08T21:12:49.221Z,26.70
2022-12-08T21:15:16.443Z,13.00
2022-12-08T21:17:43.235Z,19.40
2022-12-08T21:20:10.890Z,16.40
2022-12-08T21:22:39.565Z,11.30
2022-12-08T21:25:07.294Z,20.80
2022-12-08T21:27:34.023Z,12.40
2022-12-08T21:30:01.493Z,13.90
2022-12-08T21:32:30.595Z,13.40
2022-12-08T21:34:57.961Z,13.00
2022-12-08T21:37:24.919Z,12.80
2022-12-08T21:39:51.861Z,21.80
2022-12-08T21:42:37.404Z,22.50
2022-12-08T21:45:04.999Z,25.60
2022-12-08T21:47:32.136Z,26.60
2022-12-08T21:49:59.142Z,27.40
2022-12-08T21:52:26.005Z,22.80
2022-12-08T21:54:52.733Z,16.10
2022-12-08T21:57:19.978Z,22.60
2022-12-08T21:59:46.837Z,19.80
2022-12-08T22:02:18.317Z,10.70
2022-12-08T22:04:49.064Z,29.50
2022-12-08T22:07:16.368Z,27.80
2022-12-08T22:09:43.164Z,24.90
2022-12-08T22:12:11.809Z,25.70
2022-12-08T22:14:39.951Z,30.00
2022-12-08T22:17:07.161Z,27.10
2022-12-08T22:19:34.450Z,36.00
2022-12-08T22:22:01.911Z,47.90
2022-12-08T22:24:30.140Z,28.30
2022-12-08T22:26:56.824Z,17.30
2022-12-08T22:29:23.745Z,30.70
2022-12-08T22:31:50.394Z,18.80
2022-12-08T22:34:17.151Z,23.00
2022-12-08T22:36:43.873Z,25.70
2022-12-08T22:39:11.545Z,22.00
2022-12-08T22:41:38.918Z,23.30
2022-12-08T22:44:06.490Z,20.30
2022-12-08T22:46:33.441Z,23.40
2022-12-08T22:49:00.194Z,23.00
2022-12-08T22:51:26.840Z,15.50
2022-12-08T22:53:53.531Z,11.70
2022-12-08T22:56:20.208Z,24.90
2022-12-08T22:58:47.226Z,36.20
2022-12-08T23:01:40.357Z,27.00
2022-12-08T23:06:38.211Z,18.40
2022-12-08T23:09:06.223Z,19.90
2022-12-08T23:11:33.281Z,18.60
2022-12-08T23:13:59.898Z,18.50
2022-12-08T23:16:26.604Z,19.80
2022-12-08T23:18:53.615Z,19.70
2022-12-08T23:21:21.232Z,14.10
2022-12-08T23:23:48.281Z,18.80
2022-12-08T23:26:23.947Z,18.80
2022-12-08T23:28:50.710Z,25.40
2022-12-08T23:31:18.860Z,14.40
2022-12-08T23:33:46.258Z,16.10
2022-12-08T23:36:14.710Z,15.60
2022-12-08T23:38:42.221Z,11.40
2022-12-08T23:41:10.754Z,14.30
2022-12-08T23:43:42.071Z,24.10
2022-12-08T23:46:08.780Z,21.20
2022-12-08T23:48:35.774Z,17.30
2022-12-08T23:51:02.686Z,22.60
2022-12-08T23:53:31.108Z,19.60
2022-12-08T23:56:03.437Z,13.20
